createdAt,value
2022-11-12T00:01:18.158Z,35.97
2022-11-12T00:06:39.889Z,35.75
2022-11-12T00:12:02.893Z,35.33
2022-11-12T00:17:24.649Z,35.10
2022-11-12T00:22:46.039Z,35.25
2022-11-12T00:28:10.838Z,35.58
2022-11-12T00:33:32.241Z,35.92
2022-11-12T00:38:54.024Z,35.95
2022-11-12T00:44:16.896Z,34.53
2022-11-12T00:49:38.374Z,35.17
2022-11-12T00:55:00.060Z,34.22
2022-11-12T01:00:23.329Z,34.22
2022-11-12T01:05:44.761Z,36.03
2022-11-12T01:11:07.791Z,35.03
2022-11-12T01:16:33.196Z,34.47
2022-11-12T01:21:54.775Z,35.10
2022-11-12T01:27:16.968Z,35.10
2022-11-12T01:32:39.967Z,34.72
2022-11-12T01:38:01.896Z,34.65
2022-11-12T01:43:23.646Z,34.28
2022-11-12T01:48:50.779Z,34.38
2022-11-12T01:54:16.732Z,34.83
2022-11-12T01:59:43.920Z,33.88
2022-11-12T02:05:10.447Z,34.30
2022-11-12T02:10:32.338Z,34.17
2022-11-12T02:15:54.061Z,34.38
2022-11-12T02:21:20.816Z,33.92
2022-11-12T02:26:46.533Z,34.50
2022-11-12T02:32:08.324Z,33.88
2022-11-12T02:37:31.569Z,34.22
2022-11-12T02:42:53.749Z,33.83
2022-11-12T02:48:19.172Z,33.58
2022-11-12T02:53:42.850Z,33.78
2022-11-12T02:59:04.725Z,34.05
2022-11-12T03:04:26.236Z,33.75
2022-11-12T03:09:49.432Z,33.55
2022-11-12T03:15:11.522Z,33.30
2022-11-12T03:20:34.705Z,33.20
2022-11-12T03:25:57.472Z,33.75
2022-11-12T03:31:19.523Z,33.50
2022-11-12T03:36:41.438Z,37.00
2022-11-12T03:42:04.804Z,34.15
2022-11-12T03:47:26.807Z,33.10
2022-11-12T03:52:49.790Z,33.47
2022-11-12T03:58:13.296Z,33.00
2022-11-12T04:03:35.193Z,33.22
2022-11-12T04:08:56.722Z,32.65
2022-11-12T04:14:19.977Z,33.20
2022-11-12T04:19:59.160Z,33.25
2022-11-12T04:25:38.452Z,34.22
2022-11-12T04:31:01.300Z,33.00
2022-11-12T04:36:22.867Z,32.45
2022-11-12T04:42:02.237Z,32.60
2022-11-12T04:47:25.469Z,32.10
2022-11-12T04:52:47.392Z,32.85
2022-11-12T04:58:09.293Z,32.80
2022-11-12T05:03:32.266Z,31.98
2022-11-12T05:08:54.264Z,32.70
2022-11-12T05:14:15.953Z,33.10
2022-11-12T05:19:39.335Z,32.47
2022-11-12T05:25:00.903Z,32.28
2022-11-12T05:30:22.570Z,32.85
2022-11-12T05:35:45.442Z,32.63
2022-11-12T05:41:10.132Z,32.50
2022-11-12T05:46:32.186Z,32.70
2022-11-12T05:51:55.608Z,32.78
2022-11-12T05:57:17.147Z,32.55
2022-11-12T06:02:39.020Z,33.40
2022-11-12T06:08:02.227Z,33.10
2022-11-12T06:13:25.552Z,32.15
2022-11-12T06:18:47.315Z,32.67
2022-11-12T06:24:11.078Z,32.58
2022-11-12T06:29:32.622Z,33.80
2022-11-12T06:34:54.675Z,32.70
2022-11-12T06:40:17.720Z,32.70
2022-11-12T06:45:39.564Z,32.20
2022-11-12T06:51:09.936Z,32.45
2022-11-12T06:56:33.023Z,34.67
2022-11-12T07:01:54.685Z,31.92
2022-11-12T07:07:16.465Z,32.53
2022-11-12T07:12:47.929Z,33.30
2022-11-12T07:18:13.688Z,32.40
2022-11-12T07:23:36.858Z,32.30
2022-11-12T07:29:00.079Z,32.83
2022-11-12T07:34:21.753Z,32.63
2022-11-12T07:39:43.698Z,34.80
2022-11-12T07:45:07.868Z,32.92
2022-11-12T07:50:29.658Z,32.45
2022-11-12T07:55:55.838Z,33.15
2022-11-12T08:01:25.289Z,33.28
2022-11-12T08:06:47.386Z,33.13
2022-11-12T08:12:09.606Z,33.33
2022-11-12T08:17:32.523Z,32.95
2022-11-12T08:22:54.374Z,33.10
2022-11-12T08:28:16.067Z,32.72
2022-11-12T08:33:39.941Z,34.70
2022-11-12T08:39:09.873Z,34.65
2022-11-12T08:44:31.830Z,34.00
2022-11-12T08:49:54.979Z,35.22
2022-11-12T08:55:19.913Z,35.05
2022-11-12T09:00:46.537Z,34.67
2022-11-12T09:06:10.422Z,34.92
2022-11-12T09:11:32.135Z,35.25
2022-11-12T09:17:02.917Z,35.15
2022-11-12T09:22:26.277Z,34.60
2022-11-12T09:28:04.055Z,38.83
2022-11-12T09:33:27.449Z,35.97
2022-11-12T09:38:50.492Z,35.83
2022-11-12T09:44:14.733Z,35.25
2022-11-12T09:49:42.106Z,36.78
2022-11-12T09:55:14.105Z,35.35
2022-11-12T10:00:36.007Z,35.67
2022-11-12T10:06:01.469Z,35.58
2022-11-12T10:12:16.200Z,36.30
2022-11-12T10:17:44.310Z,35.65
2022-11-12T10:23:16.917Z,35.63
2022-11-12T10:28:46.802Z,36.42
2022-11-12T10:34:17.354Z,35.70
2022-11-12T10:39:48.617Z,36.05
2022-11-12T10:45:21.790Z,35.83
2022-11-12T10:50:44.160Z,36.47
2022-11-12T10:56:21.766Z,36.47
2022-11-12T11:01:46.377Z,37.30
2022-11-12T11:07:17.138Z,37.85
2022-11-12T11:12:38.778Z,38.80
2022-11-12T11:18:02.119Z,37.47
2022-11-12T11:23:28.539Z,37.78
2022-11-12T11:28:59.324Z,38.50
2022-11-12T11:34:34.376Z,37.08
2022-11-12T11:40:06.663Z,36.13
2022-11-12T11:45:35.274Z,38.22
2022-11-12T11:51:07.885Z,37.28
2022-11-12T11:56:35.156Z,36.95
2022-11-12T12:02:21.095Z,37.90
2022-11-12T12:07:50.850Z,38.38
2022-11-12T12:13:20.039Z,38.45
2022-11-12T12:18:51.058Z,39.50
2022-11-12T12:24:19.788Z,38.63
2022-11-12T12:29:47.592Z,39.22
2022-11-12T12:35:17.200Z,39.65
2022-11-12T12:40:47.333Z,39.25
2022-11-12T12:46:13.815Z,39.28
2022-11-12T12:51:36.802Z,42.60
2022-11-12T12:57:06.325Z,39.53
2022-11-12T13:02:28.115Z,39.65
2022-11-12T13:07:52.199Z,41.13
2022-11-12T13:13:32.941Z,42.90
2022-11-12T13:19:00.237Z,42.17
2022-11-12T13:25:00.855Z,38.92
2022-11-12T13:30:55.705Z,38.72
2022-11-12T13:36:28.902Z,40.47
2022-11-12T13:42:16.155Z,43.13
2022-11-12T13:47:45.718Z,43.58
2022-11-12T13:53:10.834Z,40.72
2022-11-12T13:58:34.105Z,40.63
2022-11-12T14:03:55.649Z,47.28
2022-11-12T14:09:29.893Z,40.47
2022-11-12T14:15:12.763Z,42.75
2022-11-12T14:20:43.050Z,43.08
2022-11-12T14:26:06.257Z,42.40
2022-11-12T14:31:27.923Z,48.95
2022-11-12T14:36:50.643Z,44.35
2022-11-12T14:42:16.508Z,43.80
2022-11-12T14:47:38.022Z,42.78
2022-11-12T14:53:04.983Z,43.55
2022-11-12T14:58:28.694Z,41.78
2022-11-12T15:03:50.150Z,43.20
2022-11-12T15:09:12.014Z,44.28
2022-11-12T15:14:35.532Z,47.83
2022-11-12T15:20:02.745Z,43.58
2022-11-12T15:25:26.857Z,42.67
2022-11-12T15:31:03.412Z,42.58
2022-11-12T15:36:25.474Z,43.47
2022-11-12T15:41:47.186Z,41.05
2022-11-12T15:47:17.336Z,42.22
2022-11-12T15:52:38.834Z,42.67
2022-11-12T15:58:00.462Z,41.05
2022-11-12T16:03:23.731Z,40.60
2022-11-12T16:08:45.090Z,40.97
2022-11-12T16:14:11.569Z,41.85
2022-11-12T16:19:34.537Z,41.35
2022-11-12T16:24:56.082Z,40.83
2022-11-12T16:30:19.722Z,40.20
2022-11-12T16:35:43.041Z,41.13
2022-11-12T16:41:04.656Z,41.75
2022-11-12T16:46:31.406Z,41.15
2022-11-12T16:52:02.161Z,40.22
2022-11-12T16:57:23.398Z,40.25
2022-11-12T17:02:50.657Z,40.83
2022-11-12T17:08:15.843Z,42.13
2022-11-12T17:13:39.589Z,40.00
2022-11-12T17:19:02.411Z,41.53
2022-11-12T17:24:28.751Z,40.65
2022-11-12T17:29:50.312Z,42.00
2022-11-12T17:35:12.024Z,41.08
2022-11-12T17:40:34.806Z,40.20
2022-11-12T17:45:57.131Z,40.75
2022-11-12T17:51:20.323Z,40.03
2022-11-12T17:56:49.327Z,39.97
2022-11-12T18:02:12.368Z,40.28
2022-11-12T18:07:34.068Z,40.53
2022-11-12T18:12:57.740Z,39.50
2022-11-12T18:18:19.744Z,39.72
2022-11-12T18:23:43.580Z,40.28
2022-11-12T18:29:07.270Z,39.72
2022-11-12T18:34:28.772Z,43.45
2022-11-12T18:39:50.401Z,40.35
2022-11-12T18:45:13.784Z,40.33
2022-11-12T18:50:35.461Z,39.60
2022-11-12T18:56:00.155Z,38.80
2022-11-12T19:01:25.365Z,38.55
2022-11-12T19:06:46.803Z,38.72
2022-11-12T19:12:10.527Z,39.10
2022-11-12T19:17:33.604Z,40.45
2022-11-12T19:22:55.209Z,39.05
2022-11-12T19:28:16.822Z,38.35
2022-11-12T19:33:40.204Z,38.63
2022-11-12T19:39:02.542Z,39.20
2022-11-12T19:44:24.377Z,37.78
2022-11-12T19:49:47.285Z,38.20
2022-11-12T19:55:09.488Z,38.78
2022-11-12T20:00:31.266Z,37.30
2022-11-12T20:06:06.718Z,38.63
2022-11-12T20:11:28.108Z,37.40
2022-11-12T20:16:51.652Z,38.70
2022-11-12T20:22:14.817Z,38.38
2022-11-12T20:27:36.349Z,37.15
2022-11-12T20:32:57.815Z,36.95
2022-11-12T20:38:20.635Z,37.20
2022-11-12T20:43:42.498Z,36.22
2022-11-12T20:49:06.437Z,36.35
2022-11-12T20:54:29.411Z,36.42
2022-11-12T20:59:51.654Z,37.97
2022-11-12T21:05:13.370Z,37.45
2022-11-12T21:10:36.054Z,35.95
2022-11-12T21:15:57.846Z,36.38
2022-11-12T21:21:21.255Z,35.58
2022-11-12T21:26:44.563Z,36.25
2022-11-12T21:32:06.592Z,37.00
2022-11-12T21:37:28.090Z,36.53
2022-11-12T21:42:51.078Z,36.55
2022-11-12T21:48:12.558Z,36.30
2022-11-12T21:53:34.429Z,36.03
2022-11-12T21:58:59.428Z,36.30
2022-11-12T22:04:21.042Z,36.03
2022-11-12T22:09:42.538Z,36.63
2022-11-12T22:15:06.275Z,35.47
2022-11-12T22:20:27.701Z,35.40
2022-11-12T22:25:50.596Z,35.45
2022-11-12T22:31:15.206Z,34.83
2022-11-12T22:36:36.857Z,36.50
2022-11-12T22:41:58.405Z,36.88
2022-11-12T22:47:21.318Z,36.22
2022-11-12T22:52:47.263Z,36.15
2022-11-12T22:58:11.885Z,35.38
2022-11-12T23:03:35.814Z,36.28
2022-11-12T23:08:59.112Z,35.10
2022-11-12T23:14:20.587Z,36.55
2022-11-12T23:19:43.592Z,36.00
2022-11-12T23:25:05.738Z,35.33
2022-11-12T23:30:27.787Z,36.20
2022-11-12T23:35:50.601Z,35.92
2022-11-12T23:41:13.173Z,35.25
2022-11-12T23:46:34.850Z,35.72
2022-11-12T23:51:57.713Z,36.03
2022-11-12T23:57:19.262Z,35.67
